Time;durP1;ratioP1;P1;durP2;ratioP2;P2;SDS_P1;SDS_P2;PMS_P1;PMS_P2;Temp;Humidity;BMP_temperature;BMP_pressure;BME280_temperature;BME280_humidity;BME280_pressure;Samples;Min_cycle;Max_cycle;Signal;HPM_P1;HPM_P2
2022/12/20 00:01:54;;;;;;;27.13;19.10;;;-1.00;99.90;;;;;;5056313;28;20214;-95
2022/12/20 00:04:23;;;;;;;25.37;17.57;;;-1.00;99.90;;;;;;5056359;28;20222;-94
2022/12/20 00:06:53;;;;;;;29.50;19.23;;;-1.00;99.90;;;;;;5057408;28;20222;-95
2022/12/20 00:09:21;;;;;;;31.20;17.87;;;-1.00;99.90;;;;;;5061065;28;20300;-94
2022/12/20 00:11:50;;;;;;;34.80;19.00;;;-0.90;99.90;;;;;;5056277;28;20300;-95
2022/12/20 00:14:18;;;;;;;28.67;19.33;;;-0.90;99.90;;;;;;5055687;28;20284;-94
2022/12/20 00:16:46;;;;;;;26.17;19.40;;;-1.00;99.90;;;;;;5056040;28;20208;-95
2022/12/20 00:19:15;;;;;;;39.77;19.40;;;-0.90;99.90;;;;;;5056192;28;20213;-95
2022/12/20 00:21:43;;;;;;;24.60;18.63;;;-1.00;99.90;;;;;;5055745;28;20209;-95
2022/12/20 00:24:13;;;;;;;27.23;18.43;;;-1.00;99.90;;;;;;5055913;28;20218;-95
2022/12/20 00:26:46;;;;;;;34.40;21.23;;;-1.00;99.90;;;;;;5055703;28;20217;-94
2022/12/20 00:29:15;;;;;;;38.03;20.00;;;-1.00;99.90;;;;;;5055830;28;20304;-94
2022/12/20 00:31:43;;;;;;;25.23;14.17;;;-1.00;99.90;;;;;;5055608;28;20221;-94
2022/12/20 00:34:11;;;;;;;31.50;19.83;;;-1.00;99.90;;;;;;5055571;28;20225;-95
2022/12/20 00:36:40;;;;;;;25.07;18.63;;;-1.00;99.90;;;;;;5055922;28;20296;-94
2022/12/20 00:39:10;;;;;;;38.27;19.60;;;-1.00;99.90;;;;;;5056970;28;20202;-94
2022/12/20 00:41:40;;;;;;;31.03;19.80;;;-1.00;99.90;;;;;;5057582;28;20292;-95
2022/12/20 00:44:08;;;;;;;30.60;19.17;;;-1.00;99.90;;;;;;5057369;28;20308;-94
2022/12/20 00:46:37;;;;;;;27.90;17.80;;;-1.00;99.90;;;;;;5057746;28;20281;-94
2022/12/20 00:49:06;;;;;;;44.20;19.90;;;-1.00;99.90;;;;;;5059452;28;20210;-94
2022/12/20 00:51:34;;;;;;;31.37;18.30;;;-1.10;99.90;;;;;;5056163;28;20235;-94
2022/12/20 00:54:02;;;;;;;36.23;17.97;;;-1.10;99.90;;;;;;5055462;28;20222;-94
2022/12/20 00:56:31;;;;;;;28.87;17.40;;;-1.10;99.90;;;;;;5055359;28;20297;-95
2022/12/20 00:59:01;;;;;;;29.80;18.10;;;-1.10;99.90;;;;;;5055061;28;20205;-94
2022/12/20 01:01:33;;;;;;;26.63;15.03;;;-1.10;99.90;;;;;;5057058;28;20217;-95
2022/12/20 01:04:02;;;;;;;30.27;18.63;;;-1.10;99.90;;;;;;5057101;28;20307;-95
2022/12/20 01:06:31;;;;;;;25.33;17.73;;;-1.10;99.90;;;;;;5057261;28;20216;-94
2022/12/20 01:09:00;;;;;;;33.17;19.40;;;-1.00;99.90;;;;;;5061896;28;20215;-96
2022/12/20 01:11:30;;;;;;;34.40;19.00;;;-1.00;99.90;;;;;;5058312;28;20206;-94
2022/12/20 01:14:02;;;;;;;25.00;17.53;;;-1.00;99.90;;;;;;5055073;28;20292;-94
2022/12/20 01:16:34;;;;;;;28.53;18.97;;;-1.00;99.90;;;;;;5054915;28;20233;-95
2022/12/20 01:19:04;;;;;;;27.63;19.23;;;-1.00;99.90;;;;;;5054667;28;20220;-94
2022/12/20 01:21:32;;;;;;;34.20;20.90;;;-1.00;99.90;;;;;;5055358;28;20216;-95
2022/12/20 01:24:00;;;;;;;27.63;18.23;;;-1.00;99.90;;;;;;5054717;28;20230;-94
2022/12/20 01:26:29;;;;;;;32.77;21.17;;;-0.90;99.90;;;;;;5058847;28;20205;-94
2022/12/20 01:28:59;;;;;;;31.10;19.13;;;-0.90;99.90;;;;;;5058338;28;20213;-93
2022/12/20 01:31:30;;;;;;;47.43;21.57;;;-0.90;99.90;;;;;;5054959;28;20201;-92
2022/12/20 01:34:00;;;;;;;32.60;20.30;;;-1.00;99.90;;;;;;5054429;28;20288;-95
2022/12/20 01:36:30;;;;;;;33.57;18.97;;;-1.00;99.90;;;;;;5054606;28;20239;-95
2022/12/20 01:38:59;;;;;;;29.53;20.77;;;-1.00;99.90;;;;;;5054249;28;20209;-96
2022/12/20 01:41:29;;;;;;;29.50;20.83;;;-1.00;99.90;;;;;;5055148;28;20206;-94
2022/12/20 01:43:59;;;;;;;29.53;19.67;;;-1.00;99.90;;;;;;5054358;28;20230;-95
2022/12/20 01:46:31;;;;;;;32.80;19.63;;;-1.00;99.90;;;;;;5054153;28;20293;-95
2022/12/20 01:49:05;;;;;;;28.97;17.33;;;-1.10;99.90;;;;;;5053983;28;20301;-95
2022/12/20 01:51:39;;;;;;;29.80;16.93;;;-1.00;99.90;;;;;;5054518;28;20220;-95
2022/12/20 01:54:11;;;;;;;34.10;19.70;;;-1.10;99.90;;;;;;5054347;28;20221;-94
2022/12/20 01:56:41;;;;;;;28.70;18.63;;;-1.10;99.90;;;;;;5053736;28;20313;-94
2022/12/20 01:59:11;;;;;;;32.77;19.27;;;-1.10;99.90;;;;;;5053708;28;20212;-94
2022/12/20 02:01:42;;;;;;;32.37;18.30;;;-1.00;99.90;;;;;;5054040;28;20209;-94
2022/12/20 02:04:10;;;;;;;36.73;20.97;;;-1.00;99.90;;;;;;5054452;28;20247;-95
2022/12/20 02:06:39;;;;;;;30.43;20.07;;;-1.00;99.90;;;;;;5054485;28;20239;-95
2022/12/20 02:09:08;;;;;;;39.47;19.80;;;-1.00;99.90;;;;;;5053908;28;20212;-95
2022/12/20 02:11:50;;;;;;;30.67;20.07;;;-0.90;99.90;;;;;;5053960;28;20265;-95
2022/12/20 02:14:36;;;;;;;35.27;21.37;;;-0.90;99.90;;;;;;5053466;28;20230;-94
2022/12/20 02:17:16;;;;;;;32.40;19.37;;;-0.90;99.90;;;;;;5054013;28;20194;-94
2022/12/20 02:20:21;;;;;;;25.03;17.53;;;-0.90;99.90;;;;;;5053171;28;20248;-95
2022/12/20 02:23:21;;;;;;;26.63;16.67;;;-0.90;99.90;;;;;;5046956;28;20209;-95
2022/12/20 02:26:04;;;;;;;28.43;16.17;;;-0.90;99.90;;;;;;5053544;28;20225;-95
2022/12/20 02:28:51;;;;;;;24.13;16.40;;;-0.90;99.90;;;;;;5053311;28;20201;-94
2022/12/20 02:31:27;;;;;;;26.73;17.60;;;-0.90;99.90;;;;;;5053693;28;20209;-94
2022/12/20 02:33:57;;;;;;;26.23;15.97;;;-0.90;99.90;;;;;;5053661;28;20227;-94
2022/12/20 02:36:26;;;;;;;26.83;17.13;;;-0.90;99.90;;;;;;5053254;28;20214;-93
2022/12/20 02:38:54;;;;;;;28.93;17.17;;;-0.80;99.90;;;;;;5053344;28;20205;-93
2022/12/20 02:41:27;;;;;;;24.70;15.83;;;-0.80;99.90;;;;;;5053218;28;20305;-94
2022/12/20 02:46:48;;;;;;;29.23;15.70;;;-0.80;99.90;;;;;;5053039;28;20204;-94
2022/12/20 02:49:18;;;;;;;19.17;14.50;;;-0.80;99.90;;;;;;5053193;28;20296;-95
2022/12/20 02:51:54;;;;;;;21.50;14.50;;;-0.80;99.90;;;;;;5053648;28;20208;-95
2022/12/20 02:54:23;;;;;;;24.27;13.90;;;-0.80;99.90;;;;;;5057282;28;20225;-93
2022/12/20 02:56:57;;;;;;;25.60;15.97;;;-0.80;99.90;;;;;;5056830;28;20226;-94
2022/12/20 02:59:29;;;;;;;22.17;15.40;;;-0.80;99.90;;;;;;5053532;28;20209;-94
2022/12/20 03:01:59;;;;;;;25.70;15.97;;;-0.90;99.90;;;;;;5053071;28;20214;-94
2022/12/20 03:04:31;;;;;;;26.93;15.70;;;-0.80;99.90;;;;;;5053419;28;20225;-94
2022/12/20 03:07:00;;;;;;;24.70;16.60;;;-0.80;99.90;;;;;;5052833;28;20202;-94
2022/12/20 03:09:31;;;;;;;25.27;17.10;;;-0.80;99.90;;;;;;5052957;28;20209;-95
2022/12/20 03:12:00;;;;;;;24.50;17.30;;;-0.80;99.90;;;;;;5053064;28;20213;-94
2022/12/20 03:14:28;;;;;;;25.10;16.33;;;-0.80;99.90;;;;;;5053585;28;20235;-95
2022/12/20 03:16:57;;;;;;;19.90;15.23;;;-0.80;99.90;;;;;;5052969;28;20216;-95
2022/12/20 03:19:27;;;;;;;37.77;20.17;;;-0.70;99.90;;;;;;5052994;28;20235;-94
2022/12/20 03:21:55;;;;;;;28.17;17.93;;;-0.70;99.90;;;;;;5052931;28;20212;-94
2022/12/20 03:24:24;;;;;;;23.33;17.07;;;-0.80;99.90;;;;;;5052911;28;20228;-95
2022/12/20 03:26:52;;;;;;;31.43;18.10;;;-0.80;99.90;;;;;;5052626;28;20208;-95
2022/12/20 03:29:21;;;;;;;27.33;18.10;;;-0.80;99.90;;;;;;5053808;28;20212;-95
2022/12/20 03:31:49;;;;;;;27.33;17.83;;;-0.80;99.90;;;;;;5057023;28;20212;-95
2022/12/20 03:34:17;;;;;;;42.20;17.27;;;-0.80;99.90;;;;;;5056765;28;20256;-95
2022/12/20 03:36:48;;;;;;;23.27;16.50;;;-0.80;99.90;;;;;;5056580;28;20316;-94
2022/12/20 03:39:17;;;;;;;28.43;19.20;;;-0.80;99.90;;;;;;5057150;28;20230;-93
2022/12/20 03:41:45;;;;;;;26.87;18.47;;;-0.80;99.90;;;;;;5056559;28;20210;-94
2022/12/20 03:44:14;;;;;;;21.47;17.13;;;-0.70;99.90;;;;;;5056478;28;20268;-93
2022/12/20 03:46:42;;;;;;;21.17;14.67;;;-0.80;99.90;;;;;;5056337;28;20256;-94
2022/12/20 03:49:10;;;;;;;27.63;17.23;;;-0.80;99.90;;;;;;5056424;28;20201;-93
2022/12/20 03:51:39;;;;;;;26.87;19.00;;;-0.80;99.90;;;;;;5056560;28;20237;-94
2022/12/20 03:54:09;;;;;;;27.80;17.97;;;-0.80;99.90;;;;;;5056632;28;20222;-94
2022/12/20 03:56:37;;;;;;;28.17;19.13;;;-0.80;99.90;;;;;;5056490;28;20224;-94
2022/12/20 03:59:06;;;;;;;24.70;16.97;;;-0.70;99.90;;;;;;5056497;28;20233;-94
2022/12/20 04:01:35;;;;;;;30.73;17.53;;;-0.70;99.90;;;;;;5056090;28;20240;-93
2022/12/20 04:04:04;;;;;;;28.97;18.47;;;-0.70;99.90;;;;;;5056440;28;20226;-92
2022/12/20 04:06:32;;;;;;;24.43;16.67;;;-0.70;99.90;;;;;;5056599;28;20221;-93
2022/12/20 04:09:01;;;;;;;29.33;18.87;;;-0.70;99.90;;;;;;5055995;28;20202;-94
2022/12/20 04:11:31;;;;;;;25.40;17.93;;;-0.70;99.90;;;;;;5056046;28;20202;-93
2022/12/20 04:13:59;;;;;;;28.03;16.53;;;-0.80;99.90;;;;;;5056150;28;20221;-94
2022/12/20 04:16:29;;;;;;;26.47;17.87;;;-0.70;99.90;;;;;;5056042;28;20218;-92
2022/12/20 04:18:58;;;;;;;24.43;17.30;;;-0.70;99.90;;;;;;5055936;28;20216;-94
2022/12/20 04:21:28;;;;;;;24.33;15.30;;;-0.80;99.90;;;;;;5056357;28;20297;-93
2022/12/20 04:23:57;;;;;;;25.63;14.70;;;-0.80;99.90;;;;;;5056219;28;20240;-93
2022/12/20 04:26:26;;;;;;;24.77;16.73;;;-0.70;99.90;;;;;;5056121;28;20266;-96
2022/12/20 04:28:56;;;;;;;26.77;17.23;;;-0.70;99.90;;;;;;5056056;28;20201;-93
2022/12/20 04:31:24;;;;;;;23.77;15.90;;;-0.70;99.90;;;;;;5055850;28;20232;-95
2022/12/20 04:33:53;;;;;;;26.97;17.03;;;-0.70;99.90;;;;;;5056135;28;20253;-93
2022/12/20 04:36:21;;;;;;;34.47;16.37;;;-0.70;99.90;;;;;;5055346;28;20222;-94
2022/12/20 04:38:49;;;;;;;34.40;19.40;;;-0.70;99.90;;;;;;5055687;28;20206;-93
2022/12/20 04:41:22;;;;;;;25.47;17.20;;;-0.70;99.90;;;;;;5057693;28;20231;-94
2022/12/20 04:43:51;;;;;;;21.57;16.13;;;-0.70;99.90;;;;;;5060939;28;20272;-94
2022/12/20 04:46:22;;;;;;;27.67;17.67;;;-0.70;99.90;;;;;;5055644;28;20210;-94
2022/12/20 04:48:50;;;;;;;28.97;18.77;;;-0.70;99.90;;;;;;5055038;28;20213;-93
2022/12/20 04:51:26;;;;;;;23.63;17.73;;;-0.70;99.90;;;;;;5055748;28;20209;-94
2022/12/20 04:53:54;;;;;;;30.43;18.17;;;-0.60;99.90;;;;;;5055434;28;20222;-93
2022/12/20 04:56:24;;;;;;;30.63;20.10;;;-0.70;99.90;;;;;;5055250;28;20251;-93
2022/12/20 04:58:54;;;;;;;29.27;18.93;;;-0.70;99.90;;;;;;5055502;28;20229;-93
2022/12/20 05:01:24;;;;;;;34.73;19.73;;;-0.60;99.90;;;;;;5055063;28;20201;-93
2022/12/20 05:03:53;;;;;;;34.90;20.30;;;-0.60;99.90;;;;;;5055628;28;20233;-93
2022/12/20 05:06:22;;;;;;;25.97;17.40;;;-0.60;99.90;;;;;;5055081;28;20206;-93
2022/12/20 05:08:50;;;;;;;29.30;18.03;;;-0.70;99.90;;;;;;5055048;28;20293;-93
2022/12/20 05:11:18;;;;;;;29.93;18.13;;;-0.70;99.90;;;;;;5056672;28;20220;-94
2022/12/20 05:13:46;;;;;;;24.20;17.80;;;-0.70;99.90;;;;;;5060123;28;20228;-93
2022/12/20 05:16:15;;;;;;;27.00;19.20;;;-0.70;99.90;;;;;;5058705;28;20214;-94
2022/12/20 05:18:45;;;;;;;26.47;19.03;;;-0.70;99.90;;;;;;5055935;28;20206;-94
2022/12/20 05:26:47;;;;;;;24.53;17.83;;;-0.70;99.90;;;;;;5054504;28;20229;-93
2022/12/20 05:29:16;;;;;;;32.70;18.30;;;-0.70;99.90;;;;;;5055152;28;20289;-94
2022/12/20 05:31:45;;;;;;;29.73;19.23;;;-0.70;99.90;;;;;;5054610;28;20213;-94
2022/12/20 05:34:15;;;;;;;32.90;19.13;;;-0.70;99.90;;;;;;5054905;28;20225;-94
2022/12/20 05:36:43;;;;;;;22.33;17.10;;;-0.70;99.90;;;;;;5056363;28;20259;-95
2022/12/20 05:39:12;;;;;;;26.63;17.20;;;-0.70;99.90;;;;;;5055882;28;20293;-94
2022/12/20 05:41:40;;;;;;;29.70;18.93;;;-0.70;99.90;;;;;;5056576;28;20233;-94
2022/12/20 05:44:09;;;;;;;25.63;18.60;;;-0.70;99.90;;;;;;5064087;28;20241;-94
2022/12/20 05:46:37;;;;;;;54.33;20.50;;;-0.70;99.90;;;;;;5054745;28;20259;-94
2022/12/20 05:49:06;;;;;;;25.33;18.80;;;-0.70;99.90;;;;;;5053976;28;20233;-95
2022/12/20 05:51:35;;;;;;;23.43;17.80;;;-0.70;99.90;;;;;;5054381;28;20269;-96
2022/12/20 05:54:04;;;;;;;36.90;19.40;;;-0.70;99.90;;;;;;5053506;28;20222;-95
2022/12/20 05:56:33;;;;;;;33.60;20.57;;;-0.70;99.90;;;;;;5054110;28;20198;-95
2022/12/20 05:59:01;;;;;;;37.00;21.30;;;-0.60;99.90;;;;;;5053559;28;20212;-94
2022/12/20 06:01:30;;;;;;;28.73;20.10;;;-0.60;99.90;;;;;;5054263;28;20214;-93
2022/12/20 06:03:59;;;;;;;34.87;21.07;;;-0.60;99.90;;;;;;5054158;28;20230;-94
2022/12/20 06:06:27;;;;;;;30.77;17.07;;;-0.60;99.90;;;;;;5054106;28;20209;-94
2022/12/20 06:08:57;;;;;;;27.17;16.97;;;-0.70;99.90;;;;;;5054019;28;20212;-94
2022/12/20 06:11:25;;;;;;;28.60;19.77;;;-0.70;99.90;;;;;;5054390;28;20273;-94
2022/12/20 06:13:58;;;;;;;35.23;20.47;;;-0.70;99.90;;;;;;5053825;28;20252;-93
2022/12/20 06:16:27;;;;;;;32.73;21.87;;;-0.70;99.90;;;;;;5053598;28;20198;-93
2022/12/20 06:18:55;;;;;;;26.33;18.77;;;-0.70;99.90;;;;;;5053288;28;20225;-94
2022/12/20 06:21:25;;;;;;;37.17;20.13;;;-0.70;99.90;;;;;;5053614;28;20237;-93
2022/12/20 06:23:53;;;;;;;35.00;21.43;;;-0.70;99.90;;;;;;5053346;28;20257;-94
2022/12/20 06:26:23;;;;;;;30.37;19.20;;;-0.70;99.90;;;;;;5053879;28;20230;-94
2022/12/20 06:28:53;;;;;;;30.33;18.33;;;-0.70;99.90;;;;;;5060835;28;20244;-94
2022/12/20 06:31:22;;;;;;;27.67;20.23;;;-0.70;99.90;;;;;;5060059;28;20201;-94
2022/12/20 06:33:50;;;;;;;41.60;20.53;;;-0.70;99.90;;;;;;5056776;28;20229;-96
2022/12/20 06:36:19;;;;;;;28.93;19.63;;;-0.70;99.90;;;;;;5053769;28;20277;-94
2022/12/20 06:38:47;;;;;;;32.50;19.80;;;-0.70;99.90;;;;;;5053279;28;20228;-94
2022/12/20 06:41:15;;;;;;;30.07;20.67;;;-0.70;99.90;;;;;;5053872;28;20205;-96
2022/12/20 06:43:45;;;;;;;28.90;18.30;;;-0.70;99.90;;;;;;5054098;28;20201;-96
2022/12/20 06:46:13;;;;;;;28.37;19.17;;;-0.70;99.90;;;;;;5054310;28;20214;-96
2022/12/20 06:48:42;;;;;;;27.40;19.70;;;-0.70;99.90;;;;;;5053757;28;20198;-96
2022/12/20 06:51:11;;;;;;;29.33;20.13;;;-0.60;99.90;;;;;;5053732;28;20296;-96
2022/12/20 06:53:39;;;;;;;31.13;20.70;;;-0.60;99.90;;;;;;5053877;28;20205;-96
2022/12/20 06:56:08;;;;;;;28.47;20.63;;;-0.60;99.90;;;;;;5054004;28;20268;-96
2022/12/20 06:58:36;;;;;;;31.10;19.47;;;-0.60;99.90;;;;;;5053832;28;20218;-95
2022/12/20 07:01:07;;;;;;;28.23;19.23;;;-0.70;99.90;;;;;;5053695;28;20206;-95
2022/12/20 07:03:35;;;;;;;33.30;22.10;;;-0.70;99.90;;;;;;5053432;28;20210;-95
2022/12/20 07:06:04;;;;;;;32.63;20.57;;;-0.60;99.90;;;;;;5053067;28;20198;-95
2022/12/20 07:08:32;;;;;;;31.47;19.77;;;-0.70;99.90;;;;;;5053717;28;20198;-95
2022/12/20 07:11:05;;;;;;;35.83;20.30;;;-0.70;99.90;;;;;;5053297;28;20206;-95
2022/12/20 07:13:36;;;;;;;29.73;20.03;;;-0.70;99.90;;;;;;5053592;28;20210;-95
2022/12/20 07:16:07;;;;;;;35.63;19.40;;;-0.60;99.90;;;;;;5053353;28;20205;-94
2022/12/20 07:18:35;;;;;;;31.13;20.77;;;-0.60;99.90;;;;;;5053130;28;20221;-96
2022/12/20 07:21:05;;;;;;;41.97;20.03;;;-0.60;99.90;;;;;;5053923;28;20202;-95
2022/12/20 07:23:33;;;;;;;41.73;21.83;;;-0.60;99.90;;;;;;5053595;28;20241;-95
2022/12/20 07:26:02;;;;;;;28.87;19.17;;;-0.60;99.90;;;;;;5058065;28;20205;-93
2022/12/20 07:28:31;;;;;;;27.00;19.37;;;-0.70;99.90;;;;;;5054784;28;20207;-95
2022/12/20 07:31:01;;;;;;;32.17;18.90;;;-0.70;99.90;;;;;;5053694;28;20236;-94
2022/12/20 07:33:31;;;;;;;32.90;21.97;;;-0.60;99.90;;;;;;5053249;28;20212;-95
2022/12/20 07:36:01;;;;;;;36.40;22.30;;;-0.60;99.90;;;;;;5053222;28;20198;-94
2022/12/20 07:38:30;;;;;;;36.23;20.63;;;-0.60;99.90;;;;;;5052442;28;20267;-95
2022/12/20 07:40:58;;;;;;;35.07;21.57;;;-0.60;99.90;;;;;;5052589;28;20214;-95
2022/12/20 07:43:27;;;;;;;34.23;23.13;;;-0.60;99.90;;;;;;5053072;28;20209;-94
2022/12/20 07:45:56;;;;;;;31.20;20.63;;;-0.60;99.90;;;;;;5053284;28;20233;-94
2022/12/20 07:48:25;;;;;;;35.33;21.97;;;-0.60;99.90;;;;;;5052887;28;20289;-94
2022/12/20 07:51:01;;;;;;;42.20;19.47;;;-0.60;99.90;;;;;;5052846;28;20277;-94
2022/12/20 07:53:33;;;;;;;33.63;21.30;;;-0.60;99.90;;;;;;5053062;28;20213;-95
2022/12/20 07:56:03;;;;;;;37.93;22.67;;;-0.60;99.90;;;;;;5052856;28;20206;-95
2022/12/20 07:58:35;;;;;;;38.93;22.00;;;-0.50;99.90;;;;;;5052202;28;20218;-94
2022/12/20 08:01:04;;;;;;;30.25;20.35;;;-0.50;99.90;;;;;;5052834;28;20205;-94
2022/12/20 08:03:38;;;;;;;45.97;23.10;;;-0.50;99.90;;;;;;5053086;28;20259;-95
2022/12/20 08:06:09;;;;;;;38.03;21.60;;;-0.50;99.90;;;;;;5052106;28;20263;-95
2022/12/20 08:08:44;;;;;;;27.23;20.80;;;-0.60;99.90;;;;;;5052757;28;20206;-94
2022/12/20 08:11:13;;;;;;;37.67;22.27;;;-0.50;99.90;;;;;;5052690;28;20205;-95
2022/12/20 08:13:41;;;;;;;34.13;21.57;;;-0.50;99.90;;;;;;5052584;28;20216;-94
2022/12/20 08:16:14;;;;;;;33.87;20.50;;;-0.50;99.90;;;;;;5058256;28;20206;-94
2022/12/20 08:18:43;;;;;;;33.40;21.03;;;-0.50;99.90;;;;;;5062148;28;20308;-95
2022/12/20 08:21:13;;;;;;;34.07;21.63;;;-0.50;99.90;;;;;;5056798;28;20202;-95
2022/12/20 08:23:42;;;;;;;31.40;20.43;;;-0.50;99.90;;;;;;5055747;28;20201;-95
2022/12/20 08:26:10;;;;;;;34.87;21.50;;;-0.50;99.90;;;;;;5056135;28;20286;-94
2022/12/20 08:28:39;;;;;;;33.10;20.83;;;-0.50;99.90;;;;;;5055980;28;20292;-94
2022/12/20 08:31:09;;;;;;;33.93;20.27;;;-0.50;99.90;;;;;;5055742;28;20209;-94
2022/12/20 08:33:39;;;;;;;32.93;21.33;;;-0.40;99.90;;;;;;5055618;28;20213;-94
2022/12/20 08:36:10;;;;;;;29.23;20.80;;;-0.40;99.90;;;;;;5056624;28;20259;-95
2022/12/20 08:38:41;;;;;;;39.13;21.53;;;-0.40;99.90;;;;;;5055847;28;20229;-95
2022/12/20 08:41:11;;;;;;;29.67;19.93;;;-0.40;99.90;;;;;;5056022;28;20255;-94
2022/12/20 08:43:40;;;;;;;30.50;21.03;;;-0.40;99.90;;;;;;5055445;28;20236;-95
2022/12/20 08:46:11;;;;;;;34.83;21.17;;;-0.40;99.90;;;;;;5055512;28;20202;-95
2022/12/20 08:48:40;;;;;;;36.40;22.30;;;-0.50;99.90;;;;;;5055089;28;20202;-94
2022/12/20 08:51:10;;;;;;;45.77;21.77;;;-0.40;99.90;;;;;;5055549;28;20217;-94
2022/12/20 08:53:40;;;;;;;34.20;20.60;;;-0.40;99.90;;;;;;5055579;28;20224;-94
2022/12/20 08:56:11;;;;;;;45.83;21.40;;;-0.40;99.90;;;;;;5055429;28;20206;-94
2022/12/20 08:58:41;;;;;;;41.17;20.50;;;-0.50;99.90;;;;;;5054857;28;20342;-94
2022/12/20 09:01:12;;;;;;;34.30;20.43;;;-0.40;99.90;;;;;;5055125;28;20201;-95
2022/12/20 09:03:41;;;;;;;35.50;20.67;;;-0.40;99.90;;;;;;5055279;28;20206;-95
2022/12/20 09:06:12;;;;;;;30.70;18.47;;;-0.40;99.90;;;;;;5054948;28;20202;-95
2022/12/20 09:08:42;;;;;;;31.83;18.10;;;-0.50;99.90;;;;;;5055218;28;20204;-94
2022/12/20 09:11:13;;;;;;;27.53;17.47;;;-0.40;99.90;;;;;;5055004;28;20205;-95
2022/12/20 09:13:42;;;;;;;31.80;20.17;;;-0.40;99.90;;;;;;5054915;28;20216;-94
2022/12/20 09:16:13;;;;;;;33.77;20.60;;;-0.40;99.90;;;;;;5055178;28;20202;-94
2022/12/20 09:18:42;;;;;;;33.50;19.00;;;-0.40;99.90;;;;;;5054623;28;20261;-94
2022/12/20 09:21:12;;;;;;;30.07;18.13;;;-0.40;99.90;;;;;;5055402;28;20209;-94
2022/12/20 09:23:42;;;;;;;29.43;18.30;;;-0.40;99.90;;;;;;5060124;28;20202;-93
2022/12/20 09:26:13;;;;;;;25.80;18.73;;;-0.40;99.90;;;;;;5061656;28;20209;-94
2022/12/20 09:28:42;;;;;;;54.77;18.40;;;-0.30;99.90;;;;;;5056456;28;20201;-94
2022/12/20 09:31:12;;;;;;;28.60;18.67;;;-0.30;99.90;;;;;;5055361;28;20202;-94
2022/12/20 09:33:41;;;;;;;33.13;18.20;;;-0.40;99.90;;;;;;5054581;28;20202;-94
2022/12/20 09:36:12;;;;;;;33.07;18.67;;;-0.50;99.90;;;;;;5055025;28;20273;-94
2022/12/20 09:38:42;;;;;;;30.40;16.97;;;-0.50;99.90;;;;;;5054648;28;20292;-94
2022/12/20 09:41:22;;;;;;;32.67;18.37;;;-0.40;99.90;;;;;;5054753;28;20206;-94
2022/12/20 09:43:51;;;;;;;22.00;16.07;;;-0.40;99.90;;;;;;5054757;28;20221;-93
2022/12/20 09:46:20;;;;;;;24.53;15.87;;;-0.40;99.90;;;;;;5054455;28;20297;-95
2022/12/20 09:48:48;;;;;;;31.20;16.40;;;-0.40;99.90;;;;;;5053663;28;20217;-94
2022/12/20 09:51:31;;;;;;;27.07;16.57;;;-0.30;99.90;;;;;;5054164;28;20202;-94
2022/12/20 09:54:12;;;;;;;23.77;15.20;;;-0.30;99.90;;;;;;5054060;28;20312;-94
2022/12/20 09:56:44;;;;;;;21.13;14.63;;;-0.30;99.90;;;;;;5054631;28;20214;-94
2022/12/20 09:59:15;;;;;;;24.80;16.27;;;-0.30;99.90;;;;;;5055394;28;20232;-94
2022/12/20 10:01:45;;;;;;;25.63;15.73;;;-0.30;99.90;;;;;;5055894;28;20308;-95
2022/12/20 10:04:21;;;;;;;20.80;15.83;;;-0.30;99.90;;;;;;5056112;28;20230;-94
2022/12/20 10:07:05;;;;;;;22.43;15.37;;;-0.30;99.90;;;;;;5060930;28;20213;-93
2022/12/20 10:10:14;;;;;;;35.17;16.77;;;-0.20;99.90;;;;;;5059627;28;20208;-94
2022/12/20 10:12:50;;;;;;;21.17;14.53;;;-0.20;99.90;;;;;;5048795;28;20202;-93
2022/12/20 10:15:21;;;;;;;25.20;16.90;;;-0.20;99.90;;;;;;5053727;28;20285;-94
2022/12/20 10:18:18;;;;;;;22.90;15.37;;;-0.20;99.90;;;;;;5053503;28;20204;-94
2022/12/20 10:20:57;;;;;;;22.80;14.80;;;-0.20;99.90;;;;;;5051292;28;20226;-94
2022/12/20 10:23:30;;;;;;;34.67;15.77;;;-0.20;99.90;;;;;;5055326;28;20197;-94
2022/12/20 10:26:05;;;;;;;29.13;16.07;;;-0.20;99.90;;;;;;5055379;28;20297;-95
2022/12/20 10:28:35;;;;;;;21.93;14.43;;;-0.20;99.90;;;;;;5054966;28;20206;-94
2022/12/20 10:31:07;;;;;;;36.43;24.30;;;-0.30;99.90;;;;;;5063538;28;20228;-94
2022/12/20 10:33:36;;;;;;;28.33;16.43;;;-0.30;99.90;;;;;;5053986;28;20197;-94
2022/12/20 10:36:25;;;;;;;23.27;14.40;;;-0.30;99.90;;;;;;5053540;28;20208;-94
2022/12/20 10:38:56;;;;;;;26.47;15.10;;;-0.20;99.90;;;;;;5052937;28;20213;-94
2022/12/20 10:41:28;;;;;;;29.93;14.70;;;-0.20;99.90;;;;;;5053732;28;20216;-95
2022/12/20 10:44:01;;;;;;;27.63;15.47;;;-0.20;99.90;;;;;;5053400;28;20222;-94
2022/12/20 10:46:38;;;;;;;22.20;13.63;;;-0.20;99.90;;;;;;5053038;28;20300;-94
2022/12/20 10:49:31;;;;;;;21.67;15.00;;;-0.20;99.90;;;;;;5053281;28;20252;-94
2022/12/20 10:52:01;;;;;;;18.37;12.73;;;-0.30;99.90;;;;;;5053393;28;20206;-94
2022/12/20 10:54:33;;;;;;;27.90;17.00;;;-0.30;99.90;;;;;;5053541;28;20245;-94
2022/12/20 10:57:17;;;;;;;17.73;13.77;;;-0.30;99.90;;;;;;5053349;28;20206;-93
2022/12/20 10:59:51;;;;;;;29.00;14.97;;;-0.20;99.90;;;;;;5053570;28;20217;-94
2022/12/20 11:02:27;;;;;;;30.00;15.33;;;-0.20;99.90;;;;;;5053059;28;20248;-94
2022/12/20 11:05:22;;;;;;;25.10;14.80;;;-0.20;99.90;;;;;;5053142;28;20229;-94
2022/12/20 11:07:56;;;;;;;29.03;15.07;;;-0.30;99.90;;;;;;5052921;28;20201;-94
2022/12/20 11:10:45;;;;;;;20.30;14.67;;;-0.20;99.90;;;;;;5053037;28;20211;-94
2022/12/20 11:13:24;;;;;;;30.63;14.13;;;-0.20;99.90;;;;;;5053288;28;20259;-94
2022/12/20 11:16:00;;;;;;;28.00;16.47;;;-0.20;99.90;;;;;;5058338;28;20212;-94
2022/12/20 11:18:43;;;;;;;26.03;15.33;;;-0.20;99.90;;;;;;5054635;28;20209;-93
2022/12/20 11:21:23;;;;;;;27.17;15.60;;;-0.20;99.90;;;;;;5053364;28;20228;-93
2022/12/20 11:24:03;;;;;;;37.47;18.03;;;-0.20;99.90;;;;;;5053109;28;20228;-93
2022/12/20 11:26:45;;;;;;;29.27;16.73;;;-0.30;99.90;;;;;;5052731;28;20233;-93
2022/12/20 11:29:39;;;;;;;29.17;15.83;;;-0.30;99.90;;;;;;5052894;28;20205;-94
2022/12/20 11:32:20;;;;;;;24.87;15.40;;;-0.30;99.90;;;;;;5052638;28;20224;-93
2022/12/20 11:34:59;;;;;;;22.30;15.13;;;-0.30;99.90;;;;;;5052742;28;20233;-93
2022/12/20 11:37:29;;;;;;;22.17;15.17;;;-0.30;99.90;;;;;;5052803;28;20209;-94
2022/12/20 11:40:08;;;;;;;35.50;16.77;;;-0.30;99.90;;;;;;5052599;28;20297;-94
2022/12/20 11:42:47;;;;;;;30.77;16.03;;;-0.20;99.90;;;;;;5052518;28;20205;-93
2022/12/20 11:45:25;;;;;;;22.87;16.10;;;-0.20;99.90;;;;;;5052857;28;20312;-94
2022/12/20 11:48:16;;;;;;;24.10;17.73;;;-0.20;99.90;;;;;;5052596;28;20206;-94
2022/12/20 11:50:55;;;;;;;32.30;17.50;;;-0.10;99.90;;;;;;5052453;28;20204;-93
2022/12/20 11:53:30;;;;;;;29.37;17.97;;;-0.10;99.90;;;;;;5056747;28;20251;-94
2022/12/20 11:56:07;;;;;;;30.63;17.63;;;-0.20;99.90;;;;;;5056321;28;20301;-94
2022/12/20 11:58:47;;;;;;;28.47;18.87;;;-0.20;99.90;;;;;;5056662;28;20205;-94
2022/12/20 12:01:22;;;;;;;22.80;15.53;;;-0.20;99.90;;;;;;5056323;28;20221;-95
2022/12/20 12:04:05;;;;;;;27.43;17.10;;;-0.20;99.90;;;;;;5056675;28;20226;-93
2022/12/20 12:06:39;;;;;;;37.43;18.30;;;-0.20;99.90;;;;;;5056047;28;20271;-94
2022/12/20 12:09:28;;;;;;;30.30;18.77;;;-0.20;99.90;;;;;;5056704;28;20244;-93
2022/12/20 12:12:01;;;;;;;27.03;17.90;;;-0.20;99.90;;;;;;5056305;28;20198;-94
2022/12/20 12:14:45;;;;;;;29.30;17.80;;;-0.30;99.90;;;;;;5056242;28;20282;-94
2022/12/20 12:17:24;;;;;;;31.57;17.80;;;-0.30;99.90;;;;;;5055691;28;20221;-93
2022/12/20 12:19:59;;;;;;;25.00;17.10;;;-0.30;99.90;;;;;;5055970;28;20288;-94
2022/12/20 12:22:33;;;;;;;44.10;16.10;;;-0.30;99.90;;;;;;5058315;28;20221;-93
2022/12/20 12:25:06;;;;;;;36.40;19.33;;;-0.40;99.90;;;;;;5059964;28;20312;-94
2022/12/20 12:27:35;;;;;;;30.07;18.17;;;-0.30;99.90;;;;;;5056148;28;20205;-94
2022/12/20 12:30:04;;;;;;;35.30;17.20;;;-0.30;99.90;;;;;;5055530;28;20209;-94
2022/12/20 12:32:39;;;;;;;27.50;17.33;;;-0.30;99.90;;;;;;5055570;28;20206;-93
2022/12/20 12:36:06;;;;;;;38.50;18.87;;;-0.40;99.90;;;;;;5055767;28;20230;-93
2022/12/20 12:39:06;;;;;;;25.13;16.40;;;-0.30;99.90;;;;;;5052482;28;20210;-94
2022/12/20 12:42:09;;;;;;;30.50;18.43;;;-0.40;99.90;;;;;;5055539;28;20222;-94
2022/12/20 12:44:46;;;;;;;27.80;17.23;;;-0.40;99.90;;;;;;5055296;28;20225;-94
2022/12/20 12:47:19;;;;;;;26.93;16.80;;;-0.40;99.90;;;;;;5055254;28;20225;-94
2022/12/20 12:49:52;;;;;;;35.73;18.90;;;-0.40;99.90;;;;;;5055522;28;20202;-93
2022/12/20 12:52:44;;;;;;;23.77;17.33;;;-0.30;99.90;;;;;;5055315;28;20209;-93
2022/12/20 12:55:47;;;;;;;26.30;16.63;;;-0.40;99.90;;;;;;5055206;28;20241;-94
2022/12/20 12:58:31;;;;;;;24.97;15.53;;;-0.30;99.90;;;;;;5033242;28;20213;-93
2022/12/20 13:01:02;;;;;;;21.33;14.60;;;-0.30;99.90;;;;;;5033224;28;20222;-94
2022/12/20 13:03:42;;;;;;;27.87;16.93;;;-0.30;99.90;;;;;;5045460;28;20279;-93